Time;durP1;ratioP1;P1;durP2;ratioP2;P2;SDS_P1;SDS_P2;PMS_P1;PMS_P2;Temp;Humidity;BMP_temperature;BMP_pressure;BME280_temperature;BME280_humidity;BME280_pressure;Samples;Min_cycle;Max_cycle;Signal;HPM_P1;HPM_P2
2022/11/24 00:01:50;;;;;;;;;;;9.00;75.60;;;;;;5044004;28;88474;-40
2022/11/24 00:04:15;;;;;;;;;;;9.10;75.50;;;;;;5043943;28;87168;-40
2022/11/24 00:06:41;;;;;;;;;;;9.00;75.50;;;;;;5044098;28;87502;-40
2022/11/24 00:09:06;;;;;;;;;;;9.00;75.50;;;;;;5043081;28;89304;-40
2022/11/24 00:11:34;;;;;;;;;;;9.00;75.50;;;;;;5043764;28;86997;-40
2022/11/24 00:13:59;;;;;;;;;;;9.00;75.50;;;;;;5043492;27;88664;-40
2022/11/24 00:16:26;;;;;;;;;;;9.00;75.50;;;;;;5043348;28;88057;-40
2022/11/24 00:18:53;;;;;;;;;;;9.00;75.40;;;;;;5046887;28;87079;-40
2022/11/24 00:21:19;;;;;;;;;;;9.00;75.50;;;;;;5043300;28;88156;-40
2022/11/24 00:23:46;;;;;;;;;;;9.00;75.50;;;;;;5043329;28;87123;-40
2022/11/24 00:26:30;;;;;;;;;;;9.00;75.80;;;;;;5044131;27;87720;-40
2022/11/24 00:28:58;;;;;;;;;;;9.00;75.60;;;;;;5043374;28;87609;-40
2022/11/24 00:31:24;;;;;;;;;;;9.00;75.50;;;;;;5043390;28;87249;-41
2022/11/24 00:33:51;;;;;;;;;;;9.00;75.70;;;;;;5042975;27;87980;-40
2022/11/24 00:36:17;;;;;;;;;;;9.00;75.60;;;;;;5043370;28;88221;-41
2022/11/24 00:38:43;;;;;;;;;;;9.00;75.50;;;;;;5046404;28;87014;-40
2022/11/24 00:41:08;;;;;;;;;;;9.00;75.50;;;;;;5043002;28;88128;-40
2022/11/24 00:43:34;;;;;;;;;;;9.00;75.50;;;;;;5043273;28;87411;-40
2022/11/24 00:46:00;;;;;;;;;;;9.00;75.60;;;;;;5043231;28;87060;-40
2022/11/24 00:48:25;;;;;;;;;;;8.90;75.60;;;;;;5043000;28;88064;-40
2022/11/24 00:51:10;;;;;;;;;;;8.90;75.60;;;;;;5043706;28;86383;-40
2022/11/24 00:53:35;;;;;;;;;;;8.90;75.50;;;;;;5043322;28;87069;-40
2022/11/24 00:56:02;;;;;;;;;;;8.90;75.60;;;;;;5042901;28;88021;-40
2022/11/24 00:58:28;;;;;;;;;;;8.90;75.60;;;;;;5042458;28;87987;-40
2022/11/24 01:00:55;;;;;;;;;;;8.90;75.50;;;;;;5045825;27;88294;-40
2022/11/24 01:03:20;;;;;;;;;;;8.90;75.50;;;;;;5043520;28;87441;-40
2022/11/24 01:05:46;;;;;;;;;;;8.90;75.60;;;;;;5042847;27;88617;-40
2022/11/24 01:08:12;;;;;;;;;;;8.90;75.50;;;;;;5042708;28;87414;-40
2022/11/24 01:10:37;;;;;;;;;;;8.90;75.60;;;;;;5043122;28;87159;-40
2022/11/24 01:13:03;;;;;;;;;;;8.90;75.70;;;;;;5042791;27;88721;-40
2022/11/24 01:15:29;;;;;;;;;;;8.90;75.70;;;;;;5043197;28;86452;-40
2022/11/24 01:17:54;;;;;;;;;;;8.80;75.50;;;;;;5042944;28;87059;-40
2022/11/24 01:20:20;;;;;;;;;;;8.80;75.60;;;;;;5043062;27;87367;-40
2022/11/24 01:22:47;;;;;;;;;;;8.80;75.40;;;;;;5044731;28;88605;-40
2022/11/24 01:25:12;;;;;;;;;;;8.90;75.50;;;;;;5042947;27;88214;-40
2022/11/24 01:27:38;;;;;;;;;;;8.90;75.50;;;;;;5042415;28;88105;-40
2022/11/24 01:30:04;;;;;;;;;;;8.80;75.50;;;;;;5042920;28;87162;-41
2022/11/24 01:32:32;;;;;;;;;;;8.80;75.50;;;;;;5042634;28;89429;-40
2022/11/24 01:34:57;;;;;;;;;;;8.80;75.50;;;;;;5042264;28;89377;-40
2022/11/24 01:37:23;;;;;;;;;;;8.80;75.50;;;;;;5042694;28;87130;-40
2022/11/24 01:39:48;;;;;;;;;;;8.80;75.50;;;;;;5043099;27;86325;-40
2022/11/24 01:42:14;;;;;;;;;;;8.80;76.10;;;;;;5042403;28;88011;-40
2022/11/24 01:44:40;;;;;;;;;;;8.80;75.40;;;;;;5044890;28;87176;-40
2022/11/24 01:47:14;;;;;;;;;;;8.80;75.40;;;;;;5041204;28;90179;-40
2022/11/24 01:49:42;;;;;;;;;;;8.80;75.40;;;;;;5042679;28;87121;-40
2022/11/24 01:52:11;;;;;;;;;;;8.80;75.50;;;;;;5042052;28;87553;-40
2022/11/24 01:54:48;;;;;;;;;;;8.80;75.50;;;;;;5042036;28;87960;-40
2022/11/24 01:57:17;;;;;;;;;;;8.80;75.50;;;;;;5042345;28;87102;-40
2022/11/24 01:59:45;;;;;;;;;;;8.80;75.30;;;;;;5042601;28;87342;-40
2022/11/24 02:02:11;;;;;;;;;;;8.80;75.50;;;;;;5041693;28;89589;-40
2022/11/24 02:04:37;;;;;;;;;;;8.80;75.40;;;;;;5042525;28;86400;-40
2022/11/24 02:07:04;;;;;;;;;;;8.80;75.30;;;;;;5045040;27;87135;-40
2022/11/24 02:09:36;;;;;;;;;;;8.80;75.30;;;;;;5042162;28;86924;-40
2022/11/24 02:12:02;;;;;;;;;;;8.80;75.30;;;;;;5041398;27;88075;-40
2022/11/24 02:14:27;;;;;;;;;;;8.80;75.40;;;;;;5041516;28;88553;-41
2022/11/24 02:16:53;;;;;;;;;;;8.80;75.40;;;;;;5040895;27;87101;-40
2022/11/24 02:19:21;;;;;;;;;;;8.80;75.30;;;;;;5045533;28;87445;-40
2022/11/24 02:21:47;;;;;;;;;;;8.70;75.40;;;;;;5045251;28;88166;-40
2022/11/24 02:24:17;;;;;;;;;;;8.80;75.30;;;;;;5045449;28;87036;-40
2022/11/24 02:26:47;;;;;;;;;;;8.70;75.40;;;;;;5045695;27;87370;-40
2022/11/24 02:29:13;;;;;;;;;;;8.70;75.30;;;;;;5048647;28;87295;-40
2022/11/24 02:31:44;;;;;;;;;;;8.70;75.40;;;;;;5045678;27;87168;-40
2022/11/24 02:34:10;;;;;;;;;;;8.70;75.30;;;;;;5044687;27;89159;-40
2022/11/24 02:36:35;;;;;;;;;;;8.70;75.40;;;;;;5044782;28;88072;-40
2022/11/24 02:39:01;;;;;;;;;;;8.70;75.40;;;;;;5045550;28;88325;-40
2022/11/24 02:41:27;;;;;;;;;;;8.70;75.40;;;;;;5044838;28;87973;-40
2022/11/24 02:43:57;;;;;;;;;;;8.70;75.40;;;;;;5044909;28;87177;-40
2022/11/24 02:46:23;;;;;;;;;;;8.70;75.30;;;;;;5045409;28;87527;-40
2022/11/24 02:48:48;;;;;;;;;;;8.70;75.20;;;;;;5047802;28;88277;-40
2022/11/24 02:51:14;;;;;;;;;;;8.70;75.20;;;;;;5045284;27;87241;-40
2022/11/24 02:53:39;;;;;;;;;;;8.70;75.20;;;;;;5045456;28;87320;-40
2022/11/24 02:56:05;;;;;;;;;;;8.70;75.20;;;;;;5045179;28;87137;-40
2022/11/24 02:58:31;;;;;;;;;;;8.70;75.10;;;;;;5044850;27;88691;-40
2022/11/24 03:00:56;;;;;;;;;;;8.70;75.20;;;;;;5043821;28;90188;-40
2022/11/24 03:03:22;;;;;;;;;;;8.70;75.30;;;;;;5044571;28;87002;-40
2022/11/24 03:05:48;;;;;;;;;;;8.70;75.30;;;;;;5045053;27;86994;-40
2022/11/24 03:08:14;;;;;;;;;;;8.70;75.30;;;;;;5044624;28;88005;-40
2022/11/24 03:10:39;;;;;;;;;;;8.70;75.30;;;;;;5047832;28;87115;-40
2022/11/24 03:13:05;;;;;;;;;;;8.70;75.30;;;;;;5044509;28;88157;-40
2022/11/24 03:15:30;;;;;;;;;;;8.70;75.30;;;;;;5044837;28;87376;-40
2022/11/24 03:17:56;;;;;;;;;;;8.60;75.40;;;;;;5045157;28;86659;-40
2022/11/24 03:20:22;;;;;;;;;;;8.60;75.30;;;;;;5044410;28;87886;-40
2022/11/24 03:22:47;;;;;;;;;;;8.60;75.30;;;;;;5044615;28;87142;-40
2022/11/24 03:25:12;;;;;;;;;;;8.60;75.30;;;;;;5044327;28;88540;-40
2022/11/24 03:27:38;;;;;;;;;;;8.60;75.20;;;;;;5044297;28;88097;-40
2022/11/24 03:30:04;;;;;;;;;;;8.60;75.30;;;;;;5044659;27;87062;-40
2022/11/24 03:32:29;;;;;;;;;;;8.60;75.30;;;;;;5046805;28;87643;-40
2022/11/24 03:34:55;;;;;;;;;;;8.60;75.50;;;;;;5044501;28;87179;-40
2022/11/24 03:37:21;;;;;;;;;;;8.60;75.40;;;;;;5044706;28;87301;-40
2022/11/24 03:39:47;;;;;;;;;;;8.60;75.30;;;;;;5043840;28;89482;-40
2022/11/24 03:42:12;;;;;;;;;;;8.60;75.30;;;;;;5044881;28;86442;-40
2022/11/24 03:44:38;;;;;;;;;;;8.60;75.30;;;;;;5043776;28;86963;-40
2022/11/24 03:47:03;;;;;;;;;;;8.60;75.30;;;;;;5043938;28;87833;-40
2022/11/24 03:49:29;;;;;;;;;;;8.60;75.30;;;;;;5043495;28;88293;-40
2022/11/24 03:51:54;;;;;;;;;;;8.60;75.40;;;;;;5044326;28;88104;-40
2022/11/24 03:54:19;;;;;;;;;;;8.60;75.40;;;;;;5046778;28;88008;-40
2022/11/24 03:56:46;;;;;;;;;;;8.60;75.40;;;;;;5044164;28;87371;-40
2022/11/24 03:59:11;;;;;;;;;;;8.60;75.60;;;;;;5043453;28;89326;-40
2022/11/24 04:01:37;;;;;;;;;;;8.50;75.50;;;;;;5044009;28;87150;-40
2022/11/24 04:04:02;;;;;;;;;;;8.60;75.40;;;;;;5043925;28;87680;-41
2022/11/24 04:06:28;;;;;;;;;;;8.60;75.50;;;;;;5044319;28;87333;-40
2022/11/24 04:08:53;;;;;;;;;;;8.60;75.60;;;;;;5044094;28;87030;-40
2022/11/24 04:14:03;;;;;;;;;;;8.60;75.40;;;;;;5042997;28;88125;-40
2022/11/24 04:16:28;;;;;;;;;;;8.60;75.50;;;;;;5046651;28;87194;-40
2022/11/24 04:18:54;;;;;;;;;;;8.50;75.40;;;;;;5043561;28;87584;-40
2022/11/24 04:21:19;;;;;;;;;;;8.50;75.40;;;;;;5043786;28;87302;-40
2022/11/24 04:23:45;;;;;;;;;;;8.50;75.40;;;;;;5043812;28;87356;-40
2022/11/24 04:26:10;;;;;;;;;;;8.50;75.60;;;;;;5043362;28;88168;-40
2022/11/24 04:28:37;;;;;;;;;;;8.50;75.60;;;;;;5043636;28;87137;-40
2022/11/24 04:31:03;;;;;;;;;;;8.50;75.50;;;;;;5044083;27;87656;-40
2022/11/24 04:33:28;;;;;;;;;;;8.50;75.50;;;;;;5043434;28;89012;-40
2022/11/24 04:35:54;;;;;;;;;;;8.50;75.60;;;;;;5043610;28;87164;-40
2022/11/24 04:38:19;;;;;;;;;;;8.50;75.50;;;;;;5045635;28;87869;-40
2022/11/24 04:40:45;;;;;;;;;;;8.50;75.40;;;;;;5042858;28;87072;-40
2022/11/24 04:43:10;;;;;;;;;;;8.50;75.40;;;;;;5043418;28;87347;-40
2022/11/24 04:45:36;;;;;;;;;;;8.50;75.50;;;;;;5041794;28;89376;-40
2022/11/24 04:48:02;;;;;;;;;;;8.50;75.50;;;;;;5043644;28;87063;-41
2022/11/24 04:50:28;;;;;;;;;;;8.50;75.50;;;;;;5043308;27;87298;-40
2022/11/24 04:52:53;;;;;;;;;;;8.40;75.50;;;;;;5042924;28;88072;-40
2022/11/24 04:55:19;;;;;;;;;;;8.40;75.60;;;;;;5044084;28;86150;-40
2022/11/24 04:57:44;;;;;;;;;;;8.50;75.50;;;;;;5045862;28;87005;-40
2022/11/24 05:00:10;;;;;;;;;;;8.50;75.50;;;;;;5043262;28;86921;-40
2022/11/24 05:02:36;;;;;;;;;;;8.50;75.50;;;;;;5042073;27;88032;-40
2022/11/24 05:05:02;;;;;;;;;;;8.50;75.50;;;;;;5042526;28;89310;-40
2022/11/24 05:07:27;;;;;;;;;;;8.50;75.60;;;;;;5043117;28;86864;-40
2022/11/24 05:12:38;;;;;;;;;;;8.40;75.50;;;;;;5042766;28;87228;-40
2022/11/24 05:15:04;;;;;;;;;;;8.40;75.60;;;;;;5042792;28;87262;-40
2022/11/24 05:17:33;;;;;;;;;;;8.40;76.20;;;;;;5042909;28;87442;-40
2022/11/24 05:19:59;;;;;;;;;;;8.40;75.50;;;;;;5045935;28;86991;-40
2022/11/24 05:22:26;;;;;;;;;;;8.40;75.60;;;;;;5043138;27;86949;-40
2022/11/24 05:24:52;;;;;;;;;;;8.40;75.70;;;;;;5042307;28;88266;-40
2022/11/24 05:27:17;;;;;;;;;;;8.40;75.60;;;;;;5042206;28;88111;-40
2022/11/24 05:29:43;;;;;;;;;;;8.40;75.60;;;;;;5042843;28;88347;-40
2022/11/24 05:32:08;;;;;;;;;;;8.40;75.70;;;;;;5042578;28;88272;-40
2022/11/24 05:34:34;;;;;;;;;;;8.40;75.60;;;;;;5042685;28;86906;-40
2022/11/24 05:37:02;;;;;;;;;;;8.40;75.60;;;;;;5042832;28;87620;-40
2022/11/24 05:39:31;;;;;;;;;;;8.40;75.60;;;;;;5042509;28;88267;-40
2022/11/24 05:41:57;;;;;;;;;;;8.40;75.60;;;;;;5045388;28;87148;-40
2022/11/24 05:44:22;;;;;;;;;;;8.40;75.60;;;;;;5041972;28;87118;-40
2022/11/24 05:46:48;;;;;;;;;;;8.40;75.60;;;;;;5042772;28;87121;-40
2022/11/24 05:49:13;;;;;;;;;;;8.40;75.60;;;;;;5042566;28;87251;-40
2022/11/24 05:51:39;;;;;;;;;;;8.30;75.50;;;;;;5041201;27;89507;-40
2022/11/24 05:54:04;;;;;;;;;;;8.30;75.50;;;;;;5046058;28;87243;-40
2022/11/24 05:56:30;;;;;;;;;;;8.30;75.50;;;;;;5046172;28;87702;-40
2022/11/24 05:58:55;;;;;;;;;;;8.40;75.60;;;;;;5045643;28;87936;-40
2022/11/24 06:01:21;;;;;;;;;;;8.30;75.60;;;;;;5046042;28;87044;-40
2022/11/24 06:03:46;;;;;;;;;;;8.30;75.60;;;;;;5048449;28;86964;-40
2022/11/24 06:06:12;;;;;;;;;;;8.40;75.50;;;;;;5046044;28;87169;-40
2022/11/24 06:08:38;;;;;;;;;;;8.30;75.50;;;;;;5046561;28;86560;-40
2022/11/24 06:11:18;;;;;;;;;;;8.30;75.50;;;;;;5045322;28;88023;-40
2022/11/24 06:13:45;;;;;;;;;;;8.30;75.70;;;;;;5045627;28;86922;-40
2022/11/24 06:16:11;;;;;;;;;;;8.30;75.50;;;;;;5045616;27;87937;-40
2022/11/24 06:18:36;;;;;;;;;;;8.30;75.50;;;;;;5045555;28;87851;-40
2022/11/24 06:21:02;;;;;;;;;;;8.30;76.10;;;;;;5045687;28;87057;-40
2022/11/24 06:23:28;;;;;;;;;;;8.30;75.50;;;;;;5045575;27;87478;-40
2022/11/24 06:25:55;;;;;;;;;;;8.30;75.50;;;;;;5048195;28;88113;-40
2022/11/24 06:28:21;;;;;;;;;;;8.30;75.50;;;;;;5045610;27;87365;-40
2022/11/24 06:30:47;;;;;;;;;;;8.30;75.50;;;;;;5045332;28;88029;-40
2022/11/24 06:33:12;;;;;;;;;;;8.30;75.50;;;;;;5046279;28;86227;-40
2022/11/24 06:35:38;;;;;;;;;;;8.30;75.50;;;;;;5045801;28;87061;-40
2022/11/24 06:38:03;;;;;;;;;;;8.30;75.40;;;;;;5045126;28;88292;-40
2022/11/24 06:40:29;;;;;;;;;;;8.30;75.50;;;;;;5044912;28;88088;-40
2022/11/24 06:42:54;;;;;;;;;;;8.30;75.50;;;;;;5045165;28;88398;-40
2022/11/24 06:45:20;;;;;;;;;;;8.30;75.50;;;;;;5043472;28;87985;-40
2022/11/24 06:47:45;;;;;;;;;;;8.30;75.50;;;;;;5047054;28;86987;-40
2022/11/24 06:50:11;;;;;;;;;;;8.20;75.50;;;;;;5043742;28;89340;-40
2022/11/24 06:52:36;;;;;;;;;;;8.30;75.50;;;;;;5044085;28;86979;-40
2022/11/24 06:55:02;;;;;;;;;;;8.30;75.50;;;;;;5044120;28;87475;-40
2022/11/24 06:57:30;;;;;;;;;;;8.30;75.50;;;;;;5044155;28;86329;-40
2022/11/24 06:59:56;;;;;;;;;;;8.30;75.70;;;;;;5043839;28;87366;-40
2022/11/24 07:02:21;;;;;;;;;;;8.30;75.60;;;;;;5044026;28;87111;-40
2022/11/24 07:04:47;;;;;;;;;;;8.30;75.50;;;;;;5042487;27;88935;-40
2022/11/24 07:07:12;;;;;;;;;;;8.30;75.50;;;;;;5047011;28;87066;-40
2022/11/24 07:09:38;;;;;;;;;;;8.30;75.50;;;;;;5043481;28;87855;-40
2022/11/24 07:12:04;;;;;;;;;;;8.30;75.60;;;;;;5043703;28;87059;-40
2022/11/24 07:14:30;;;;;;;;;;;8.30;75.50;;;;;;5043501;27;88665;-40
2022/11/24 07:16:56;;;;;;;;;;;8.30;75.50;;;;;;5043169;28;87906;-40
2022/11/24 07:19:21;;;;;;;;;;;8.30;75.50;;;;;;5043583;28;87066;-40
2022/11/24 07:21:47;;;;;;;;;;;8.30;75.50;;;;;;5044030;28;87643;-40
2022/11/24 07:24:12;;;;;;;;;;;8.30;75.40;;;;;;5043305;28;88376;-40
2022/11/24 07:26:38;;;;;;;;;;;8.20;75.50;;;;;;5043279;28;87148;-40
2022/11/24 07:29:04;;;;;;;;;;;8.20;75.50;;;;;;5045598;27;88032;-40
2022/11/24 07:31:30;;;;;;;;;;;8.20;75.50;;;;;;5043423;28;87168;-40
2022/11/24 07:33:56;;;;;;;;;;;8.20;75.50;;;;;;5043412;28;87427;-40
2022/11/24 07:36:22;;;;;;;;;;;8.20;75.50;;;;;;5042952;28;87281;-40
2022/11/24 07:38:48;;;;;;;;;;;8.20;75.50;;;;;;5043331;28;87079;-40
2022/11/24 07:41:14;;;;;;;;;;;8.20;75.50;;;;;;5043076;27;87334;-40
2022/11/24 07:43:40;;;;;;;;;;;8.20;75.50;;;;;;5042892;28;87986;-40
2022/11/24 07:46:06;;;;;;;;;;;8.20;75.50;;;;;;5002286;27;1186026;-40
2022/11/24 07:48:32;;;;;;;;;;;8.20;75.50;;;;;;5044400;27;86926;-40
2022/11/24 07:50:59;;;;;;;;;;;8.20;75.50;;;;;;5046864;28;88066;-40
2022/11/24 07:53:24;;;;;;;;;;;8.20;75.50;;;;;;5043600;27;88806;-40
2022/11/24 07:55:54;;;;;;;;;;;8.20;75.50;;;;;;5043851;28;88116;-40
2022/11/24 07:58:20;;;;;;;;;;;8.20;75.50;;;;;;5044220;28;87157;-40
2022/11/24 08:00:45;;;;;;;;;;;8.20;75.50;;;;;;5044357;27;87316;-40
2022/11/24 08:03:11;;;;;;;;;;;8.20;75.40;;;;;;5043645;28;87192;-40
2022/11/24 08:05:36;;;;;;;;;;;8.20;75.60;;;;;;5044415;28;88044;-40
2022/11/24 08:08:02;;;;;;;;;;;8.20;76.20;;;;;;5044252;28;87284;-40
2022/11/24 08:10:28;;;;;;;;;;;8.30;75.50;;;;;;5043821;28;87273;-40
2022/11/24 08:12:53;;;;;;;;;;;8.20;75.70;;;;;;5047013;28;87651;-40
2022/11/24 08:15:19;;;;;;;;;;;8.20;75.50;;;;;;5042643;27;88050;-40
2022/11/24 08:17:44;;;;;;;;;;;8.20;75.60;;;;;;5043436;28;88129;-40
2022/11/24 08:20:10;;;;;;;;;;;8.20;75.60;;;;;;5043935;28;88379;-40
2022/11/24 08:22:35;;;;;;;;;;;8.20;75.50;;;;;;5043407;28;88041;-40
2022/11/24 08:25:01;;;;;;;;;;;8.20;75.50;;;;;;5043784;28;87009;-40
2022/11/24 08:27:26;;;;;;;;;;;8.20;75.50;;;;;;5043604;28;87530;-40
2022/11/24 08:29:51;;;;;;;;;;;8.20;75.50;;;;;;5043192;28;87956;-40
2022/11/24 08:32:17;;;;;;;;;;;8.20;75.60;;;;;;5043861;28;87096;-40
2022/11/24 08:34:42;;;;;;;;;;;8.20;75.60;;;;;;5046592;28;87480;-40
2022/11/24 08:37:08;;;;;;;;;;;8.20;75.60;;;;;;5043691;28;87114;-40
2022/11/24 08:39:33;;;;;;;;;;;8.20;75.50;;;;;;5043557;28;87443;-40
2022/11/24 08:41:59;;;;;;;;;;;8.20;75.50;;;;;;5042444;28;88199;-40
2022/11/24 08:44:27;;;;;;;;;;;8.20;75.70;;;;;;5042636;28;87579;-40
2022/11/24 08:46:52;;;;;;;;;;;8.20;75.70;;;;;;5043419;27;87352;-40
2022/11/24 08:49:18;;;;;;;;;;;8.20;75.60;;;;;;5043000;28;87243;-40
2022/11/24 08:51:45;;;;;;;;;;;8.20;75.80;;;;;;5043001;28;87131;-40
2022/11/24 08:54:14;;;;;;;;;;;8.10;75.70;;;;;;5045653;27;87576;-40
2022/11/24 08:56:39;;;;;;;;;;;8.20;75.80;;;;;;5042902;28;87240;-40
2022/11/24 08:59:05;;;;;;;;;;;8.10;75.70;;;;;;5043782;28;87462;-40
2022/11/24 09:01:30;;;;;;;;;;;8.10;75.60;;;;;;5042837;28;88157;-40
2022/11/24 09:03:56;;;;;;;;;;;8.20;75.80;;;;;;5042612;28;87115;-40
2022/11/24 09:06:23;;;;;;;;;;;8.10;75.70;;;;;;5042753;28;87873;-40
2022/11/24 09:08:50;;;;;;;;;;;8.10;75.80;;;;;;5042666;28;88084;-40
2022/11/24 09:11:16;;;;;;;;;;;8.10;75.80;;;;;;5042604;28;87170;-40
2022/11/24 09:13:42;;;;;;;;;;;8.10;75.70;;;;;;5042893;27;88799;-40
2022/11/24 09:16:17;;;;;;;;;;;8.10;75.70;;;;;;5045440;28;89759;-40
2022/11/24 09:18:43;;;;;;;;;;;8.10;75.70;;;;;;5043285;27;87347;-40
2022/11/24 09:21:09;;;;;;;;;;;8.10;75.80;;;;;;5042583;28;88111;-40
2022/11/24 09:23:34;;;;;;;;;;;8.10;75.80;;;;;;5043309;28;86393;-40
2022/11/24 09:26:10;;;;;;;;;;;8.10;75.60;;;;;;5042899;27;86919;-40
2022/11/24 09:28:36;;;;;;;;;;;8.10;75.60;;;;;;5042376;28;88000;-40
2022/11/24 09:31:03;;;;;;;;;;;8.10;75.70;;;;;;5042169;28;88044;-40
2022/11/24 09:33:29;;;;;;;;;;;8.10;75.70;;;;;;5042518;27;90024;-40
2022/11/24 09:35:54;;;;;;;;;;;8.10;76.40;;;;;;5042509;28;88104;-40
2022/11/24 09:38:20;;;;;;;;;;;8.10;75.70;;;;;;5045832;28;87130;-40
2022/11/24 09:40:45;;;;;;;;;;;8.10;75.80;;;;;;5042213;28;88067;-40
2022/11/24 09:43:29;;;;;;;;;;;8.10;75.70;;;;;;5042736;28;86918;-40
2022/11/24 09:46:04;;;;;;;;;;;8.10;75.80;;;;;;5041970;28;87182;-40
2022/11/24 09:48:32;;;;;;;;;;;8.10;75.90;;;;;;5042917;28;87190;-40
2022/11/24 09:51:01;;;;;;;;;;;8.10;75.80;;;;;;5042101;28;87212;-40
2022/11/24 09:53:30;;;;;;;;;;;8.10;75.80;;;;;;5042350;27;87136;-40
2022/11/24 09:55:58;;;;;;;;;;;8.10;75.80;;;;;;5041373;28;88917;-40
2022/11/24 09:58:42;;;;;;;;;;;8.10;75.70;;;;;;5042559;28;87251;-40
2022/11/24 10:01:18;;;;;;;;;;;8.10;75.70;;;;;;5045026;27;87631;-40
2022/11/24 10:03:48;;;;;;;;;;;8.10;75.70;;;;;;5042180;28;86976;-40
2022/11/24 10:06:40;;;;;;;;;;;8.10;75.70;;;;;;5042089;27;88785;-40
2022/11/24 10:09:33;;;;;;;;;;;8.10;75.80;;;;;;5039401;28;88044;-40
2022/11/24 10:12:14;;;;;;;;;;;8.10;75.70;;;;;;5042263;28;87129;-40
2022/11/24 10:14:52;;;;;;;;;;;8.10;75.60;;;;;;5042638;27;86574;-40
2022/11/24 10:17:31;;;;;;;;;;;8.10;75.60;;;;;;5042073;28;87969;-40
2022/11/24 10:20:15;;;;;;;;;;;8.10;75.60;;;;;;5042343;28;87078;-40
2022/11/24 10:22:47;;;;;;;;;;;8.00;75.60;;;;;;5041565;27;87879;-40
2022/11/24 10:25:19;;;;;;;;;;;8.00;75.70;;;;;;5044549;28;87805;-40
2022/11/24 10:27:49;;;;;;;;;;;8.00;75.70;;;;;;5041921;27;87448;-40
2022/11/24 10:30:22;;;;;;;;;;;8.00;75.70;;;;;;5041623;28;88245;-40
2022/11/24 10:32:50;;;;;;;;;;;8.00;75.60;;;;;;5041940;28;86975;-40
2022/11/24 10:35:16;;;;;;;;;;;8.00;75.70;;;;;;5042128;27;87307;-40
2022/11/24 10:38:05;;;;;;;;;;;8.00;75.70;;;;;;5041679;27;87984;-40
2022/11/24 10:40:33;;;;;;;;;;;8.00;75.70;;;;;;5045710;28;86151;-40
2022/11/24 10:42:59;;;;;;;;;;;8.00;75.70;;;;;;5045348;28;86969;-40
2022/11/24 10:45:25;;;;;;;;;;;8.00;75.70;;;;;;5044101;28;88085;-40
2022/11/24 10:47:51;;;;;;;;;;;8.00;75.80;;;;;;5047652;28;87963;-40
2022/11/24 10:50:27;;;;;;;;;;;8.00;75.80;;;;;;5045156;28;88229;-40
2022/11/24 10:53:05;;;;;;;;;;;8.00;75.80;;;;;;5044995;28;87512;-40
2022/11/24 10:55:50;;;;;;;;;;;8.00;75.70;;;;;;5045274;27;87165;-40
2022/11/24 10:58:16;;;;;;;;;;;8.00;75.60;;;;;;5044914;27;88055;-40
2022/11/24 11:00:41;;;;;;;;;;;8.00;75.70;;;;;;5045010;28;87005;-40
2022/11/24 11:03:20;;;;;;;;;;;8.00;75.70;;;;;;5045115;28;87325;-40
2022/11/24 11:05:52;;;;;;;;;;;8.00;75.80;;;;;;5045055;28;87153;-40
2022/11/24 11:08:22;;;;;;;;;;;8.00;75.80;;;;;;5047704;28;87191;-40
2022/11/24 11:10:49;;;;;;;;;;;8.00;75.80;;;;;;5044605;28;88149;-40
2022/11/24 11:13:21;;;;;;;;;;;8.00;75.70;;;;;;5044161;28;88046;-40
2022/11/24 11:15:46;;;;;;;;;;;8.00;75.80;;;;;;5044961;28;88221;-40
2022/11/24 11:18:15;;;;;;;;;;;8.00;75.90;;;;;;5044614;28;88019;-40
2022/11/24 11:20:47;;;;;;;;;;;7.90;75.90;;;;;;5044620;28;87401;-40
2022/11/24 11:23:15;;;;;;;;;;;7.90;75.80;;;;;;5044864;27;87743;-40
2022/11/24 11:25:42;;;;;;;;;;;7.90;75.70;;;;;;5044190;28;87165;-40
2022/11/24 11:28:20;;;;;;;;;;;8.00;75.70;;;;;;5044483;28;87089;-40
2022/11/24 11:31:15;;;;;;;;;;;8.00;75.70;;;;;;5047546;27;87505;-41
2022/11/24 11:33:52;;;;;;;;;;;7.90;75.60;;;;;;5034622;28;87159;-40
2022/11/24 11:36:18;;;;;;;;;;;7.90;75.50;;;;;;5044815;27;87304;-40
2022/11/24 11:38:44;;;;;;;;;;;7.90;75.70;;;;;;5043395;28;88776;-40
2022/11/24 11:41:15;;;;;;;;;;;8.00;75.60;;;;;;5044387;28;87140;-40
2022/11/24 11:43:44;;;;;;;;;;;7.90;75.50;;;;;;5044555;28;87395;-40
2022/11/24 11:46:09;;;;;;;;;;;8.00;75.60;;;;;;5043168;28;89524;-40
2022/11/24 11:48:36;;;;;;;;;;;7.90;75.50;;;;;;5044369;28;87151;-40
2022/11/24 11:51:08;;;;;;;;;;;7.90;75.60;;;;;;5043080;27;86994;-40
2022/11/24 11:53:45;;;;;;;;;;;7.90;75.60;;;;;;5047006;28;87988;-40
2022/11/24 11:56:20;;;;;;;;;;;8.00;75.70;;;;;;5044663;27;87899;-40
2022/11/24 11:58:54;;;;;;;;;;;8.00;75.60;;;;;;5044001;28;88236;-40
2022/11/24 12:01:36;;;;;;;;;;;7.90;75.60;;;;;;5044179;28;87153;-40
2022/11/24 12:04:10;;;;;;;;;;;7.90;75.60;;;;;;5043636;28;87777;-40
2022/11/24 12:06:45;;;;;;;;;;;8.00;75.60;;;;;;5043682;28;87279;-40
2022/11/24 12:09:29;;;;;;;;;;;7.90;75.60;;;;;;5043965;28;87107;-40
2022/11/24 12:12:09;;;;;;;;;;;7.90;75.70;;;;;;5044030;27;87333;-40
2022/11/24 12:14:40;;;;;;;;;;;7.90;75.60;;;;;;5043699;28;88071;-40
2022/11/24 12:17:09;;;;;;;;;;;7.90;75.60;;;;;;5046888;28;87158;-40
2022/11/24 12:19:53;;;;;;;;;;;7.90;75.40;;;;;;5043326;28;88040;-40
2022/11/24 12:22:36;;;;;;;;;;;7.90;75.40;;;;;;5044373;27;86414;-40
2022/11/24 12:25:20;;;;;;;;;;;7.90;75.50;;;;;;5044009;28;86931;-40
2022/11/24 12:27:52;;;;;;;;;;;7.90;75.40;;;;;;5043305;27;88022;-40
2022/11/24 12:30:30;;;;;;;;;;;7.90;75.30;;;;;;5043170;28;88019;-40
2022/11/24 12:33:02;;;;;;;;;;;7.90;75.30;;;;;;5043744;27;88067;-40
2022/11/24 12:35:39;;;;;;;;;;;7.90;75.50;;;;;;5042985;28;87999;-40
2022/11/24 12:38:23;;;;;;;;;;;7.90;75.50;;;;;;5043357;28;87026;-40
2022/11/24 12:41:04;;;;;;;;;;;7.90;75.40;;;;;;5046293;27;87398;-40
2022/11/24 12:43:34;;;;;;;;;;;7.90;75.40;;;;;;5043631;28;87158;-40
2022/11/24 12:46:02;;;;;;;;;;;7.90;75.50;;;;;;5042742;27;87463;-40
2022/11/24 12:48:28;;;;;;;;;;;7.90;75.50;;;;;;5043701;28;86409;-40
2022/11/24 12:50:55;;;;;;;;;;;7.90;75.60;;;;;;5043005;28;87123;-40
2022/11/24 12:53:23;;;;;;;;;;;7.90;75.60;;;;;;5043059;28;88748;-40
2022/11/24 12:55:49;;;;;;;;;;;7.90;75.50;;;;;;5042160;28;88183;-40
2022/11/24 12:58:24;;;;;;;;;;;7.90;75.50;;;;;;5043236;28;87131;-40
2022/11/24 13:00:50;;;;;;;;;;;7.90;75.50;;;;;;5042545;27;88689;-40
2022/11/24 13:03:20;;;;;;;;;;;7.90;75.50;;;;;;5045597;28;87929;-40
2022/11/24 13:05:45;;;;;;;;;;;7.90;75.50;;;;;;5043007;27;87052;-40
2022/11/24 13:08:12;;;;;;;;;;;7.90;75.30;;;;;;5042846;28;87188;-40
2022/11/24 13:10:38;;;;;;;;;;;7.90;75.30;;;;;;5043102;28;87461;-40
2022/11/24 13:13:05;;;;;;;;;;;7.90;75.30;;;;;;5043424;27;88614;-40
2022/11/24 13:15:32;;;;;;;;;;;7.90;75.40;;;;;;5042635;28;88190;-40
2022/11/24 13:17:58;;;;;;;;;;;7.90;75.40;;;;;;5042807;28;87250;-40
2022/11/24 13:20:25;;;;;;;;;;;7.90;75.40;;;;;;5042238;28;87990;-40
2022/11/24 13:22:55;;;;;;;;;;;7.90;75.50;;;;;;5045379;28;87953;-40
2022/11/24 13:25:21;;;;;;;;;;;7.90;75.40;;;;;;5042597;27;87008;-40
2022/11/24 13:27:54;;;;;;;;;;;7.90;75.30;;;;;;5042251;28;89214;-40
2022/11/24 13:30:31;;;;;;;;;;;7.90;75.40;;;;;;5042502;28;87087;-40
2022/11/24 13:33:09;;;;;;;;;;;7.90;75.40;;;;;;5042914;28;87384;-40
2022/11/24 13:35:35;;;;;;;;;;;7.80;75.40;;;;;;5042506;28;88375;-40
2022/11/24 13:38:00;;;;;;;;;;;7.90;75.30;;;;;;5042984;28;86436;-40
2022/11/24 13:40:28;;;;;;;;;;;7.90;75.30;;;;;;5042836;28;87300;-40
2022/11/24 13:42:57;;;;;;;;;;;7.90;75.30;;;;;;5042089;28;87264;-40
2022/11/24 13:45:38;;;;;;;;;;;7.90;75.30;;;;;;5044418;28;88216;-40
2022/11/24 13:48:19;;;;;;;;;;;7.90;75.30;;;;;;5042240;28;87142;-40
2022/11/24 13:51:04;;;;;;;;;;;7.90;75.30;;;;;;5042730;28;87050;-40
2022/11/24 13:53:33;;;;;;;;;;;7.80;75.30;;;;;;5041808;28;87130;-40
2022/11/24 13:56:01;;;;;;;;;;;7.80;75.20;;;;;;5042166;28;88080;-40
2022/11/24 13:58:37;;;;;;;;;;;7.80;75.40;;;;;;5042353;28;87029;-40
2022/11/24 14:01:21;;;;;;;;;;;7.80;75.30;;;;;;5042183;27;88646;-40
2022/11/24 14:03:55;;;;;;;;;;;7.80;75.30;;;;;;5042488;27;87289;-40
2022/11/24 14:06:27;;;;;;;;;;;7.80;75.30;;;;;;5042380;28;87073;-40
2022/11/24 14:08:53;;;;;;;;;;;7.80;75.30;;;;;;5044751;28;87412;-40
2022/11/24 14:11:19;;;;;;;;;;;7.80;75.30;;;;;;5041803;28;87925;-40
2022/11/24 14:13:45;;;;;;;;;;;7.80;75.50;;;;;;5043522;27;89813;-40
2022/11/24 14:16:10;;;;;;;;;;;7.80;75.40;;;;;;5045513;28;88394;-40
2022/11/24 14:18:37;;;;;;;;;;;7.80;75.30;;;;;;5045664;28;87229;-40
2022/11/24 14:21:21;;;;;;;;;;;7.70;75.30;;;;;;5045859;27;86975;-40
2022/11/24 14:23:50;;;;;;;;;;;7.80;75.40;;;;;;5045188;28;88044;-40
2022/11/24 14:26:34;;;;;;;;;;;7.80;75.50;;;;;;5045811;28;88274;-40
2022/11/24 14:29:13;;;;;;;;;;;7.70;75.30;;;;;;5045774;28;88732;-40
2022/11/24 14:31:38;;;;;;;;;;;7.70;75.30;;;;;;5048363;28;87438;-40
2022/11/24 14:34:10;;;;;;;;;;;7.80;75.30;;;;;;5045595;27;87203;-40
2022/11/24 14:36:35;;;;;;;;;;;7.70;75.20;;;;;;5044449;28;88820;-40
2022/11/24 14:39:01;;;;;;;;;;;7.70;75.30;;;;;;5045267;28;87151;-40
2022/11/24 14:41:27;;;;;;;;;;;7.70;75.50;;;;;;5045572;28;88277;-40
2022/11/24 14:44:22;;;;;;;;;;;7.70;75.60;;;;;;5044753;28;88316;-40